Time,TemperatureF,DewpointF,PressureIn,WindDirection,WindDirectionDegrees,WindSpeedMPH,WindSpeedGustMPH,Humidity,HourlyPrecipIn,Conditions,Clouds,dailyrainin,SoftwareType,DateUTC
2013-01-23 00:00:00,62.0,54.0,30.10,South,175,1.1,1.1,75,0.00,CLR,OVC,0.00,WeatherDisplay:10.37,2013-01-22 13:00:00,
2013-01-23 00:05:00,62.0,54.0,30.10,SE,132,1.1,0.0,75,0.00,CLR,OVC,0.00,WeatherDisplay:10.37,2013-01-22 13:05:00,
2013-01-23 00:10:00,62.0,54.0,30.10,SSE,157,4.6,4.6,75,0.00,CLR,OVC,0.00,WeatherDisplay:10.37,2013-01-22 13:10:00,
2013-01-23 00:15:00,62.0,54.0,30.09,SSE,157,3.5,3.5,75,0.00,CLR,OVC,0.00,WeatherDisplay:10.37,2013-01-22 13:15:00,
2013-01-23 00:20:00,62.0,54.3,30.09,South,190,4.6,4.6,76,0.00,CLR,OVC,0.00,WeatherDisplay:10.37,2013-01-22 13:20:00,
2013-01-23 00:25:00,61.9,53.9,30.09,SSE,157,3.5,3.5,75,0.00,CLR,OVC,0.00,WeatherDisplay:10.37,2013-01-22 13:25:00,
2013-01-23 00:30:00,61.8,54.2,30.09,SSE,155,4.6,4.6,76,0.00,CLR,OVC,0.00,WeatherDisplay:10.37,2013-01-22 13:30:00,
2013-01-23 00:35:00,61.8,54.2,30.09,SSE,155,1.1,1.1,76,0.00,CLR,OVC,0.00,WeatherDisplay:10.37,2013-01-22 13:35:00,
2013-01-23 00:40:00,61.6,53.6,30.09,SSE,155,1.1,0.0,75,0.00,CLR,OVC,0.00,WeatherDisplay:10.37,2013-01-22 13:40:00,
2013-01-23 00:45:00,61.5,53.9,30.09,SSE,155,1.1,1.1,76,0.00,CLR,OVC,0.00,WeatherDisplay:10.37,2013-01-22 13:45:00,
2013-01-23 00:50:00,61.4,54.1,30.09,SSE,155,4.6,4.6,77,0.00,CLR,OVC,0.00,WeatherDisplay:10.37,2013-01-22 13:50:00,
2013-01-23 00:55:00,61.4,54.1,30.09,SSE,148,4.6,4.6,77,0.00,CLR,OVC,0.00,WeatherDisplay:10.37,2013-01-22 13:55:00,
2013-01-23 01:00:00,61.5,54.2,30.09,SSE,148,4.6,4.6,77,0.00,CLR,OVC,0.00,WeatherDisplay:10.37,2013-01-22 14:00:00,
2013-01-23 01:05:00,61.6,54.3,30.09,SSE,147,3.5,3.5,77,0.00,CLR,OVC,0.00,WeatherDisplay:10.37,2013-01-22 14:05:00,
2013-01-23 01:10:00,61.6,54.0,30.09,SE,146,1.1,1.1,76,0.00,CLR,OVC,0.00,WeatherDisplay:10.37,2013-01-22 14:10:00,
2013-01-23 01:15:00,61.6,54.0,30.10,SSE,147,2.3,2.3,76,0.00,CLR,OVC,0.00,WeatherDisplay:10.37,2013-01-22 14:15:00,
2013-01-23 01:20:00,61.6,54.0,30.10,SSE,147,5.8,5.8,76,0.00,CLR,OVC,0.00,WeatherDisplay:10.37,2013-01-22 14:20:00,
2013-01-23 01:25:00,61.5,53.5,30.09,SE,139,4.6,4.6,75,0.00,CLR,OVC,0.00,WeatherDisplay:10.37,2013-01-22 14:25:00,
2013-01-23 01:30:00,61.5,53.5,30.09,SE,138,1.1,1.1,75,0.00,CLR,OVC,0.00,WeatherDisplay:10.37,2013-01-22 14:30:00,
2013-01-23 01:35:00,61.5,53.5,30.09,SE,138,1.1,0.0,75,0.00,CLR,OVC,0.00,WeatherDisplay:10.37,2013-01-22 14:35:00,
2013-01-23 01:40:00,61.6,54.0,30.09,SE,136,4.6,4.6,76,0.00,CLR,OVC,0.00,WeatherDisplay:10.37,2013-01-22 14:40:00,
2013-01-23 01:45:00,61.8,53.8,30.09,SE,128,6.9,6.9,75,0.00,CLR,OVC,0.00,WeatherDisplay:10.37,2013-01-22 14:45:00,
2013-01-23 01:50:00,61.9,53.9,30.09,ESE,115,4.6,4.6,75,0.00,CLR,OVC,0.00,WeatherDisplay:10.37,2013-01-22 14:50:00,
2013-01-23 01:56:00,61.9,53.9,30.09,ESE,118,6.9,6.9,75,0.00,CLR,OVC,0.00,WeatherDisplay:10.37,2013-01-22 14:56:00,
2013-01-23 02:01:00,61.9,53.5,30.09,ESE,119,4.6,4.6,74,0.00,CLR,OVC,0.00,WeatherDisplay:10.37,2013-01-22 15:01:00,
2013-01-23 02:06:00,61.8,53.4,30.09,ESE,120,3.5,3.5,74,0.00,CLR,OVC,0.00,WeatherDisplay:10.37,2013-01-22 15:06:00,
2013-01-23 02:11:00,61.7,53.3,30.09,ESE,119,3.5,3.5,74,0.00,CLR,OVC,0.00,WeatherDisplay:10.37,2013-01-22 15:11:00,
2013-01-23 02:16:00,61.6,53.2,30.10,ESE,119,2.3,2.3,74,0.00,CLR,OVC,0.00,WeatherDisplay:10.37,2013-01-22 15:16:00,
2013-01-23 02:21:00,61.5,53.1,30.10,ESE,119,4.6,4.6,74,0.00,CLR,OVC,0.00,WeatherDisplay:10.37,2013-01-22 15:21:00,
2013-01-23 02:26:00,61.4,53.0,30.10,ESE,119,3.5,3.5,74,0.00,CLR,OVC,0.00,WeatherDisplay:10.37,2013-01-22 15:26:00,
2013-01-23 02:31:00,61.4,53.0,30.10,ESE,119,2.0,2.0,74,0.00,CLR,OVC,0.00,WeatherDisplay:10.37,2013-01-22 15:31:00,
2013-01-23 02:36:00,61.5,53.5,30.10,ESE,119,3.5,3.5,75,0.00,CLR,OVC,0.00,WeatherDisplay:10.37,2013-01-22 15:36:00,
2013-01-23 02:41:00,61.6,53.6,30.10,ESE,123,3.5,3.5,75,0.00,CLR,OVC,0.00,WeatherDisplay:10.37,2013-01-22 15:41:00,
2013-01-23 02:46:00,61.5,53.1,30.10,ESE,123,3.5,3.5,74,0.00,CLR,OVC,0.00,WeatherDisplay:10.37,2013-01-22 15:46:00,
2013-01-23 02:51:00,61.5,53.1,30.10,SE,124,3.5,3.5,74,0.00,CLR,OVC,0.00,WeatherDisplay:10.37,2013-01-22 15:51:00,
2013-01-23 02:56:00,61.6,53.2,30.10,SE,124,2.3,2.3,74,0.00,CLR,OVC,0.00,WeatherDisplay:10.37,2013-01-22 15:56:00,
2013-01-23 03:01:00,61.6,52.9,30.10,ESE,123,4.6,4.6,73,0.00,CLR,OVC,0.00,WeatherDisplay:10.37,2013-01-22 16:01:00,
2013-01-23 03:06:00,61.7,53.3,30.09,SE,124,1.1,1.1,74,0.00,CLR,OVC,0.00,WeatherDisplay:10.37,2013-01-22 16:06:00,
2013-01-23 03:11:00,61.8,53.4,30.09,ESE,123,2.3,2.3,74,0.00,CLR,OVC,0.00,WeatherDisplay:10.37,2013-01-22 16:11:00,
2013-01-23 03:17:00,61.8,53.4,30.09,ESE,123,1.1,1.1,74,0.00,CLR,OVC,0.00,WeatherDisplay:10.37,2013-01-22 16:17:00,
2013-01-23 03:22:00,61.7,53.3,30.09,SE,132,4.6,4.6,74,0.00,CLR,OVC,0.00,WeatherDisplay:10.37,2013-01-22 16:22:00,
2013-01-23 03:27:00,61.7,53.3,30.09,SE,132,1.1,1.1,74,0.00,CLR,OVC,0.00,WeatherDisplay:10.37,2013-01-22 16:27:00,
2013-01-23 03:32:00,61.7,53.3,30.09,SE,132,4.6,4.6,74,0.00,CLR,OVC,0.00,WeatherDisplay:10.37,2013-01-22 16:32:00,
2013-01-23 03:37:00,61.7,53.7,30.09,SE,132,4.0,4.0,75,0.00,CLR,OVC,0.00,WeatherDisplay:10.37,2013-01-22 16:37:00,
2013-01-23 03:42:00,61.6,53.6,30.09,SE,132,2.3,2.3,75,0.00,CLR,OVC,0.00,WeatherDisplay:10.37,2013-01-22 16:42:00,
2013-01-23 03:47:00,61.4,53.4,30.09,SSE,160,5.8,5.8,75,0.00,CLR,OVC,0.00,WeatherDisplay:10.37,2013-01-22 16:47:00,
2013-01-23 03:52:00,61.3,52.9,30.09,SSE,158,2.3,2.3,74,0.00,CLR,OVC,0.00,WeatherDisplay:10.37,2013-01-22 16:52:00,
2013-01-23 03:57:00,61.2,52.8,30.09,SSE,156,6.9,6.9,74,0.00,CLR,OVC,0.00,WeatherDisplay:10.37,2013-01-22 16:57:00,
2013-01-23 04:02:00,61.2,53.2,30.09,SSE,159,1.1,1.1,75,0.00,CLR,OVC,0.00,WeatherDisplay:10.37,2013-01-22 17:02:00,
2013-01-23 04:08:00,61.1,53.1,30.09,SSE,156,3.5,3.5,75,0.00,CLR,OVC,0.00,WeatherDisplay:10.37,2013-01-22 17:08:00,
2013-01-23 04:13:00,61.1,53.1,30.08,SSE,164,5.8,5.8,75,0.00,CLR,OVC,0.00,WeatherDisplay:10.37,2013-01-22 17:13:00,
2013-01-23 04:18:00,61.1,53.1,30.09,SSE,161,5.0,5.0,75,0.00,CLR,OVC,0.00,WeatherDisplay:10.37,2013-01-22 17:18:00,
2013-01-23 04:23:00,61.1,53.1,30.09,SSE,155,4.6,4.6,75,0.00,CLR,OVC,0.00,WeatherDisplay:10.37,2013-01-22 17:23:00,
2013-01-23 04:28:00,61.1,52.7,30.09,SE,139,5.8,5.8,74,0.00,CLR,OVC,0.00,WeatherDisplay:10.37,2013-01-22 17:28:00,
2013-01-23 04:33:00,61.1,52.7,30.09,SE,138,4.6,4.6,74,0.00,CLR,OVC,0.00,WeatherDisplay:10.37,2013-01-22 17:33:00,
2013-01-23 04:38:00,60.9,52.2,30.09,SE,137,4.6,4.6,73,0.00,CLR,OVC,0.00,WeatherDisplay:10.37,2013-01-22 17:38:00,
2013-01-23 04:43:00,60.8,52.1,30.09,SE,136,5.0,5.0,73,0.00,CLR,OVC,0.00,WeatherDisplay:10.37,2013-01-22 17:43:00,
2013-01-23 04:48:00,60.7,52.0,30.10,SE,136,3.5,3.5,73,0.00,CLR,OVC,0.00,WeatherDisplay:10.37,2013-01-22 17:48:00,
2013-01-23 04:53:00,60.7,52.0,30.09,SE,128,5.8,5.8,73,0.00,CLR,OVC,0.00,WeatherDisplay:10.37,2013-01-22 17:53:00,
2013-01-23 04:58:00,60.7,51.6,30.10,ESE,119,5.8,5.8,72,0.00,CLR,OVC,0.00,WeatherDisplay:10.37,2013-01-22 17:58:00,
2013-01-23 05:03:00,60.6,51.1,30.10,ESE,121,4.0,4.0,71,0.00,CLR,OVC,0.00,WeatherDisplay:10.37,2013-01-22 18:03:00,
2013-01-23 05:08:00,60.6,51.5,30.10,ESE,122,4.6,4.6,72,0.00,CLR,OVC,0.00,WeatherDisplay:10.37,2013-01-22 18:08:00,
2013-01-23 05:13:00,60.6,51.1,30.10,ESE,123,5.8,5.8,71,0.00,CLR,OVC,0.00,WeatherDisplay:10.37,2013-01-22 18:13:00,
2013-01-23 05:18:00,60.6,51.1,30.10,ESE,123,5.8,5.8,71,0.00,CLR,OVC,0.00,WeatherDisplay:10.37,2013-01-22 18:18:00,
2013-01-23 05:24:00,60.7,51.6,30.10,SE,125,5.8,5.8,72,0.00,CLR,OVC,0.00,WeatherDisplay:10.37,2013-01-22 18:24:00,
2013-01-23 05:29:00,60.7,51.6,30.11,SE,128,3.5,3.5,72,0.00,CLR,OVC,0.00,WeatherDisplay:10.37,2013-01-22 18:29:00,
2013-01-23 05:34:00,60.7,52.0,30.11,SE,128,4.6,4.6,73,0.00,CLR,OVC,0.00,WeatherDisplay:10.37,2013-01-22 18:34:00,
2013-01-23 05:39:00,60.7,52.0,30.11,SE,132,3.5,3.5,73,0.00,CLR,OVC,0.00,WeatherDisplay:10.37,2013-01-22 18:39:00,
2013-01-23 05:44:00,60.6,51.9,30.11,SE,132,4.0,4.0,73,0.00,CLR,OVC,0.00,WeatherDisplay:10.37,2013-01-22 18:44:00,
2013-01-23 05:49:00,60.5,51.8,30.11,SE,132,3.5,3.5,73,0.00,CLR,OVC,0.00,WeatherDisplay:10.37,2013-01-22 18:49:00,
2013-01-23 05:54:00,60.5,52.2,30.11,SE,138,3.5,3.5,74,0.00,CLR,OVC,0.00,WeatherDisplay:10.37,2013-01-22 18:54:00,
2013-01-23 05:59:00,60.6,52.3,30.11,SE,126,0.0,0.0,74,0.00,CLR,OVC,0.00,WeatherDisplay:10.37,2013-01-22 18:59:00,
2013-01-23 06:04:00,60.7,52.7,30.12,SE,126,5.8,5.8,75,0.00,CLR,OVC,0.00,WeatherDisplay:10.37,2013-01-22 19:04:00,
2013-01-23 06:09:00,60.9,52.9,30.12,ESE,120,6.9,6.9,75,0.00,CLR,OVC,0.00,WeatherDisplay:10.37,2013-01-22 19:09:00,
2013-01-23 06:14:00,60.9,52.2,30.12,SE,134,6.9,6.9,73,0.00,CLR,OVC,0.00,WeatherDisplay:10.37,2013-01-22 19:14:00,
2013-01-23 06:19:00,60.9,52.2,30.12,ESE,119,6.0,6.0,73,0.00,CLR,OVC,0.00,WeatherDisplay:10.37,2013-01-22 19:19:00,
2013-01-23 06:24:00,60.8,51.7,30.13,SE,128,5.8,5.8,72,0.00,CLR,OVC,0.00,WeatherDisplay:10.37,2013-01-22 19:24:00,
2013-01-23 06:29:00,60.7,52.0,30.13,SE,128,3.5,3.5,73,0.00,CLR,OVC,0.00,WeatherDisplay:10.37,2013-01-22 19:29:00,
2013-01-23 06:34:00,60.6,51.5,30.13,SE,127,5.8,5.8,72,0.00,CLR,OVC,0.00,WeatherDisplay:10.37,2013-01-22 19:34:00,
2013-01-23 06:39:00,60.6,51.9,30.13,SE,134,6.9,6.9,73,0.00,CLR,OVC,0.00,WeatherDisplay:10.37,2013-01-22 19:39:00,
2013-01-23 06:44:00,60.7,52.0,30.14,SE,132,6.0,6.0,73,0.00,CLR,OVC,0.00,WeatherDisplay:10.37,2013-01-22 19:44:00,
2013-01-23 06:49:00,60.7,51.6,30.14,ESE,123,6.9,6.9,72,0.00,CLR,OVC,0.00,WeatherDisplay:10.37,2013-01-22 19:49:00,
2013-01-23 06:54:00,60.7,51.6,30.14,SE,126,3.5,3.5,72,0.00,CLR,OVC,0.00,WeatherDisplay:10.37,2013-01-22 19:54:00,
2013-01-23 06:59:00,60.6,50.8,30.15,ESE,121,6.0,6.0,70,0.00,CLR,OVC,0.00,WeatherDisplay:10.37,2013-01-22 19:59:00,
2013-01-23 07:04:00,60.7,51.2,30.14,SE,142,5.8,5.8,71,0.00,CLR,OVC,0.00,WeatherDisplay:10.37,2013-01-22 20:04:00,
2013-01-23 07:09:00,60.8,51.3,30.15,ESE,105,9.2,9.2,71,0.00,CLR,OVC,0.00,WeatherDisplay:10.37,2013-01-22 20:09:00,
2013-01-23 07:14:00,60.9,51.0,30.15,ESE,109,4.6,4.6,70,0.00,CLR,OVC,0.00,WeatherDisplay:10.37,2013-01-22 20:14:00,
2013-01-23 07:19:00,61.3,51.0,30.15,SE,125,6.9,6.9,69,0.00,CLR,OVC,0.00,WeatherDisplay:10.37,2013-01-22 20:19:00,
2013-01-23 07:24:00,61.8,51.5,30.15,SE,126,5.8,5.8,69,0.00,CLR,OVC,0.00,WeatherDisplay:10.37,2013-01-22 20:24:00,
2013-01-23 07:29:00,62.1,51.8,30.15,ESE,119,5.8,5.8,69,0.00,CLR,OVC,0.00,WeatherDisplay:10.37,2013-01-22 20:29:00,
2013-01-23 07:34:00,62.2,51.9,30.15,East,86,8.1,8.1,69,0.00,CLR,OVC,0.00,WeatherDisplay:10.37,2013-01-22 20:34:00,
2013-01-23 07:39:00,62.6,52.3,30.16,East,98,5.0,5.0,69,0.00,CLR,OVC,0.00,WeatherDisplay:10.37,2013-01-22 20:39:00,
2013-01-23 07:44:00,62.7,52.0,30.16,East,101,4.6,4.6,68,0.00,CLR,OVC,0.00,WeatherDisplay:10.37,2013-01-22 20:44:00,
2013-01-23 07:49:00,63.1,52.4,30.16,East,93,5.8,5.8,68,0.00,CLR,OVC,0.00,WeatherDisplay:10.37,2013-01-22 20:49:00,
2013-01-23 07:54:00,63.6,52.8,30.16,ESE,113,9.2,9.2,68,0.00,CLR,OVC,0.00,WeatherDisplay:10.37,2013-01-22 20:54:00,
2013-01-23 07:59:00,63.8,52.2,30.17,East,95,8.1,8.1,66,0.00,CLR,OVC,0.00,WeatherDisplay:10.37,2013-01-22 20:59:00,
2013-01-23 08:04:00,63.7,52.1,30.17,East,87,5.8,5.8,66,0.00,CLR,OVC,0.00,WeatherDisplay:10.37,2013-01-22 21:04:00,
2013-01-23 08:09:00,63.5,51.9,30.17,SE,125,4.6,4.6,66,0.00,CLR,OVC,0.00,WeatherDisplay:10.37,2013-01-22 21:09:00,
2013-01-23 08:14:00,63.4,51.8,30.17,East,93,6.9,6.9,66,0.00,CLR,OVC,0.00,WeatherDisplay:10.37,2013-01-22 21:14:00,
2013-01-23 08:19:00,63.8,52.6,30.17,East,80,6.9,6.9,67,0.00,CLR,OVC,0.00,WeatherDisplay:10.37,2013-01-22 21:19:00,
2013-01-23 08:24:00,64.4,52.4,30.17,East,90,11.5,11.5,65,0.00,CLR,OVC,0.00,WeatherDisplay:10.37,2013-01-22 21:24:00,
2013-01-23 08:29:00,64.2,51.8,30.17,East,91,8.1,8.1,64,0.00,CLR,OVC,0.00,WeatherDisplay:10.37,2013-01-22 21:29:00,
2013-01-23 08:32:00,64.3,52.3,30.17,ESE,121,8.1,8.1,65,0.00,CLR,OVC,0.00,WeatherDisplay:10.37,2013-01-22 21:32:00,
2013-01-23 08:37:00,64.1,51.7,30.17,East,96,9.2,9.2,64,0.00,CLR,OVC,0.00,WeatherDisplay:10.37,2013-01-22 21:37:00,
2013-01-23 08:42:00,63.9,51.5,30.17,SE,130,6.9,6.9,64,0.00,CLR,OVC,0.00,WeatherDisplay:10.37,2013-01-22 21:42:00,
2013-01-23 08:47:00,64.4,52.0,30.17,East,93,11.5,11.5,64,0.00,CLR,OVC,0.00,WeatherDisplay:10.37,2013-01-22 21:47:00,
2013-01-23 08:52:00,64.4,52.0,30.18,SE,125,6.9,6.9,64,0.00,CLR,OVC,0.00,WeatherDisplay:10.37,2013-01-22 21:52:00,
2013-01-23 08:57:00,64.7,51.4,30.18,ENE,77,10.0,10.0,62,0.00,CLR,OVC,0.00,WeatherDisplay:10.37,2013-01-22 21:57:00,
2013-01-23 09:02:00,64.7,51.8,30.18,ESE,112,9.2,9.2,63,0.00,CLR,OVC,0.00,WeatherDisplay:10.37,2013-01-22 22:02:00,
2013-01-23 09:07:00,64.7,52.2,30.18,ESE,108,11.5,11.5,64,0.00,CLR,OVC,0.00,WeatherDisplay:10.37,2013-01-22 22:07:00,
2013-01-23 09:12:00,65.3,51.9,30.18,ESE,116,6.9,6.9,62,0.00,CLR,OVC,0.00,WeatherDisplay:10.37,2013-01-22 22:12:00,
2013-01-23 09:17:00,66.0,52.6,30.18,ENE,78,13.8,13.8,62,0.00,CLR,OVC,0.00,WeatherDisplay:10.37,2013-01-22 22:17:00,
2013-01-23 09:23:00,66.3,52.4,30.18,East,101,9.2,9.2,61,0.00,CLR,OVC,0.00,WeatherDisplay:10.37,2013-01-22 22:23:00,
2013-01-23 09:28:00,66.5,52.6,30.18,ESE,105,8.1,8.1,61,0.00,CLR,OVC,0.00,WeatherDisplay:10.37,2013-01-22 22:28:00,
2013-01-23 09:33:00,66.1,52.3,30.18,East,90,9.2,9.2,61,0.00,CLR,OVC,0.00,WeatherDisplay:10.37,2013-01-22 22:33:00,
2013-01-23 09:38:00,65.8,52.0,30.17,East,99,11.5,11.5,61,0.00,CLR,OVC,0.00,WeatherDisplay:10.37,2013-01-22 22:38:00,
2013-01-23 09:43:00,64.8,51.5,30.18,East,86,10.4,10.4,62,0.00,CLR,OVC,0.00,WeatherDisplay:10.37,2013-01-22 22:43:00,
2013-01-23 09:48:00,64.1,52.1,30.18,East,84,8.1,8.1,65,0.00,CLR,OVC,0.00,WeatherDisplay:10.37,2013-01-22 22:48:00,
2013-01-23 09:53:00,65.2,53.1,30.18,East,96,8.1,8.1,65,0.00,CLR,OVC,0.00,WeatherDisplay:10.37,2013-01-22 22:53:00,
2013-01-23 09:58:00,66.3,52.4,30.18,East,83,6.9,6.9,61,0.00,CLR,OVC,0.00,WeatherDisplay:10.37,2013-01-22 22:58:00,
2013-01-23 10:03:00,66.3,51.5,30.18,East,101,16.1,16.1,59,0.00,CLR,OVC,0.00,WeatherDisplay:10.37,2013-01-22 23:03:00,
2013-01-23 10:08:00,65.7,52.3,30.18,East,85,7.0,7.0,62,0.00,CLR,OVC,0.00,WeatherDisplay:10.37,2013-01-22 23:08:00,
2013-01-23 10:13:00,66.3,52.4,30.18,East,89,11.5,11.5,61,0.00,CLR,OVC,0.00,WeatherDisplay:10.37,2013-01-22 23:13:00,
2013-01-23 10:18:00,66.6,51.8,30.18,East,86,10.4,10.4,59,0.00,CLR,OVC,0.00,WeatherDisplay:10.37,2013-01-22 23:18:00,
2013-01-23 10:23:00,66.3,51.5,30.18,East,90,12.7,12.7,59,0.00,CLR,OVC,0.00,WeatherDisplay:10.37,2013-01-22 23:23:00,
2013-01-23 10:28:00,66.6,52.7,30.18,ESE,117,8.1,8.1,61,0.00,CLR,OVC,0.00,WeatherDisplay:10.37,2013-01-22 23:28:00,
2013-01-23 10:33:00,66.9,52.6,30.18,East,93,8.1,8.1,60,0.00,CLR,OVC,0.00,WeatherDisplay:10.37,2013-01-22 23:33:00,
2013-01-23 10:38:00,67.1,52.7,30.18,ESE,110,7.0,7.0,60,0.00,CLR,OVC,0.00,WeatherDisplay:10.37,2013-01-22 23:38:00,
2013-01-23 10:43:00,67.4,52.1,30.18,East,96,10.0,10.0,58,0.00,CLR,OVC,0.00,WeatherDisplay:10.37,2013-01-22 23:43:00,
2013-01-23 10:48:00,66.8,51.5,30.18,East,83,8.1,8.1,58,0.00,CLR,OVC,0.00,WeatherDisplay:10.37,2013-01-22 23:48:00,
2013-01-23 10:53:00,66.8,52.5,30.18,ESE,118,11.5,11.5,60,0.00,CLR,OVC,0.00,WeatherDisplay:10.37,2013-01-22 23:53:00,
2013-01-23 10:58:00,67.1,52.3,30.18,East,91,9.2,9.2,59,0.00,CLR,OVC,0.00,WeatherDisplay:10.37,2013-01-22 23:58:00,
2013-01-23 11:03:00,67.4,52.6,30.18,SE,125,8.0,8.0,59,0.00,CLR,OVC,0.00,WeatherDisplay:10.37,2013-01-23 00:03:00,
2013-01-23 11:08:00,67.6,52.3,30.18,East,98,10.4,10.4,58,0.00,CLR,OVC,0.00,WeatherDisplay:10.37,2013-01-23 00:08:00,
2013-01-23 11:13:00,67.9,53.0,30.18,ESE,102,11.5,11.5,59,0.00,CLR,OVC,0.00,WeatherDisplay:10.37,2013-01-23 00:13:00,
2013-01-23 11:18:00,67.4,52.1,30.18,East,83,16.1,16.1,58,0.00,CLR,OVC,0.00,WeatherDisplay:10.37,2013-01-23 00:18:00,
2013-01-23 11:23:00,67.2,52.8,30.18,East,82,6.9,6.9,60,0.00,CLR,OVC,0.00,WeatherDisplay:10.37,2013-01-23 00:23:00,
2013-01-23 11:28:00,67.4,52.6,30.18,SE,128,10.4,10.4,59,0.00,CLR,OVC,0.00,WeatherDisplay:10.37,2013-01-23 00:28:00,
2013-01-23 11:33:00,67.4,52.1,30.18,SE,133,8.1,8.1,58,0.00,CLR,OVC,0.00,WeatherDisplay:10.37,2013-01-23 00:33:00,
2013-01-23 11:38:00,67.5,52.2,30.18,East,101,6.9,6.9,58,0.00,CLR,OVC,0.00,WeatherDisplay:10.37,2013-01-23 00:38:00,
2013-01-23 11:43:00,68.0,52.7,30.18,ESE,109,8.1,8.1,58,0.00,CLR,OVC,0.00,WeatherDisplay:10.37,2013-01-23 00:43:00,
2013-01-23 11:48:00,68.1,51.3,30.18,SE,133,10.4,10.4,55,0.00,CLR,OVC,0.00,WeatherDisplay:10.37,2013-01-23 00:48:00,
2013-01-23 11:53:00,68.4,52.6,30.18,ENE,70,8.0,8.0,57,0.00,CLR,OVC,0.00,WeatherDisplay:10.37,2013-01-23 00:53:00,
2013-01-23 11:58:00,68.8,52.9,30.18,ESE,116,5.8,5.8,57,0.00,CLR,OVC,0.00,WeatherDisplay:10.37,2013-01-23 00:58:00,
2013-01-23 12:03:00,68.8,52.0,30.17,SSE,160,8.1,8.1,55,0.00,CLR,OVC,0.00,WeatherDisplay:10.37,2013-01-23 01:03:00,
2013-01-23 12:08:00,68.5,52.2,30.18,SE,126,8.1,8.1,56,0.00,CLR,OVC,0.00,WeatherDisplay:10.37,2013-01-23 01:08:00,
2013-01-23 12:13:00,68.5,52.7,30.18,SSE,149,11.5,11.5,57,0.00,CLR,OVC,0.00,WeatherDisplay:10.37,2013-01-23 01:13:00,
2013-01-23 12:18:00,68.2,52.4,30.18,East,84,10.4,10.4,57,0.00,CLR,OVC,0.00,WeatherDisplay:10.37,2013-01-23 01:18:00,
2013-01-23 12:23:00,68.3,52.5,30.18,ESE,121,11.5,11.5,57,0.00,CLR,OVC,0.00,WeatherDisplay:10.37,2013-01-23 01:23:00,
2013-01-23 12:28:00,68.3,52.9,30.17,ESE,119,9.2,9.2,58,0.00,CLR,OVC,0.00,WeatherDisplay:10.37,2013-01-23 01:28:00,
2013-01-23 12:33:00,68.6,53.2,30.17,ESE,104,9.2,9.2,58,0.00,CLR,OVC,0.00,WeatherDisplay:10.37,2013-01-23 01:33:00,
2013-01-23 12:38:00,68.6,53.2,30.18,East,88,8.1,8.1,58,0.00,CLR,OVC,0.00,WeatherDisplay:10.37,2013-01-23 01:38:00,
2013-01-23 12:43:00,68.9,52.6,30.18,ESE,119,9.0,9.0,56,0.00,CLR,OVC,0.00,WeatherDisplay:10.37,2013-01-23 01:43:00,
2013-01-23 12:48:00,69.1,52.2,30.17,East,79,8.1,8.1,55,0.00,CLR,OVC,0.00,WeatherDisplay:10.37,2013-01-23 01:48:00,
2013-01-23 12:53:00,68.8,52.0,30.18,ESE,112,9.2,9.2,55,0.00,CLR,OVC,0.00,WeatherDisplay:10.37,2013-01-23 01:53:00,
2013-01-23 12:58:00,68.8,52.5,30.18,ESE,117,8.1,8.1,56,0.00,CLR,OVC,0.00,WeatherDisplay:10.37,2013-01-23 01:58:00,
2013-01-23 13:03:00,69.1,51.8,30.18,ESE,109,8.1,8.1,54,0.00,CLR,OVC,0.00,WeatherDisplay:10.37,2013-01-23 02:03:00,
2013-01-23 13:08:00,69.3,52.4,30.18,East,99,6.9,6.9,55,0.00,CLR,OVC,0.00,WeatherDisplay:10.37,2013-01-23 02:08:00,
2013-01-23 13:13:00,69.5,51.1,30.17,SE,142,8.1,8.1,52,0.00,CLR,OVC,0.00,WeatherDisplay:10.37,2013-01-23 02:13:00,
2013-01-23 13:18:00,69.2,50.8,30.17,East,95,7.0,7.5,52,0.00,CLR,OVC,0.00,WeatherDisplay:10.37,2013-01-23 02:18:00,
2013-01-23 13:23:00,69.1,50.7,30.17,ENE,77,8.0,8.0,52,0.00,CLR,OVC,0.00,WeatherDisplay:10.37,2013-01-23 02:23:00,
2013-01-23 13:28:00,69.1,49.7,30.17,East,87,8.1,8.1,50,0.00,CLR,OVC,0.00,WeatherDisplay:10.37,2013-01-23 02:28:00,
2013-01-23 13:33:00,68.8,48.9,30.17,SE,124,8.1,8.1,49,0.00,CLR,OVC,0.00,WeatherDisplay:10.37,2013-01-23 02:33:00,
2013-01-23 13:38:00,69.1,49.1,30.17,East,95,10.4,10.4,49,0.00,CLR,OVC,0.00,WeatherDisplay:10.37,2013-01-23 02:38:00,
2013-01-23 13:44:00,69.2,49.2,30.17,SE,141,5.8,5.8,49,0.00,CLR,OVC,0.00,WeatherDisplay:10.37,2013-01-23 02:44:00,
2013-01-23 13:49:00,69.2,49.2,30.17,SE,125,8.1,8.1,49,0.00,CLR,OVC,0.00,WeatherDisplay:10.37,2013-01-23 02:49:00,
2013-01-23 13:54:00,69.3,49.9,30.17,SE,129,8.1,8.1,50,0.00,CLR,OVC,0.00,WeatherDisplay:10.37,2013-01-23 02:54:00,
2013-01-23 13:59:00,69.4,50.5,30.17,East,99,7.0,7.0,51,0.00,CLR,OVC,0.00,WeatherDisplay:10.37,2013-01-23 02:59:00,
2013-01-23 14:04:00,69.4,49.9,30.17,SE,125,9.2,9.2,50,0.00,CLR,OVC,0.00,WeatherDisplay:10.37,2013-01-23 03:04:00,
2013-01-23 14:09:00,69.0,49.6,30.16,East,98,6.9,6.9,50,0.00,CLR,OVC,0.00,WeatherDisplay:10.37,2013-01-23 03:09:00,
2013-01-23 14:14:00,69.0,49.6,30.16,East,96,11.5,11.5,50,0.00,CLR,OVC,0.00,WeatherDisplay:10.37,2013-01-23 03:14:00,
2013-01-23 14:19:00,69.0,50.1,30.16,ESE,113,9.2,9.2,51,0.00,CLR,OVC,0.00,WeatherDisplay:10.37,2013-01-23 03:19:00,
2013-01-23 14:24:00,68.5,49.1,30.16,ESE,120,9.2,9.2,50,0.00,CLR,OVC,0.00,WeatherDisplay:10.37,2013-01-23 03:24:00,
2013-01-23 14:29:00,68.6,49.2,30.16,SE,132,8.1,8.1,50,0.00,CLR,OVC,0.00,WeatherDisplay:10.37,2013-01-23 03:29:00,
2013-01-23 14:34:00,68.7,49.3,30.16,SSE,153,7.0,7.0,50,0.00,CLR,OVC,0.00,WeatherDisplay:10.37,2013-01-23 03:34:00,
2013-01-23 14:39:00,68.6,49.7,30.16,East,88,9.2,9.2,51,0.00,CLR,OVC,0.00,WeatherDisplay:10.37,2013-01-23 03:39:00,
2013-01-23 14:44:00,68.7,49.3,30.16,East,90,9.2,9.2,50,0.00,CLR,OVC,0.00,WeatherDisplay:10.37,2013-01-23 03:44:00,
2013-01-23 14:49:00,68.5,50.2,30.15,SE,128,6.9,6.9,52,0.00,CLR,OVC,0.00,WeatherDisplay:10.37,2013-01-23 03:49:00,
2013-01-23 14:54:00,69.0,50.6,30.15,ESE,120,8.0,8.0,52,0.00,CLR,OVC,0.00,WeatherDisplay:10.37,2013-01-23 03:54:00,
2013-01-23 14:59:00,69.1,49.7,30.15,SE,138,8.1,8.1,50,0.00,CLR,OVC,0.00,WeatherDisplay:10.37,2013-01-23 03:59:00,
2013-01-23 15:04:00,68.6,49.2,30.15,SE,130,11.5,11.5,50,0.00,CLR,OVC,0.00,WeatherDisplay:10.37,2013-01-23 04:04:00,
2013-01-23 15:09:00,67.9,49.1,30.15,SE,124,9.0,9.0,51,0.00,CLR,OVC,0.00,WeatherDisplay:10.37,2013-01-23 04:09:00,
2013-01-23 15:14:00,67.7,49.9,30.15,ESE,117,11.5,11.5,53,0.00,CLR,OVC,0.00,WeatherDisplay:10.37,2013-01-23 04:14:00,
2013-01-23 15:19:00,67.9,50.6,30.15,ESE,122,11.5,11.5,54,0.00,CLR,OVC,0.00,WeatherDisplay:10.37,2013-01-23 04:19:00,
2013-01-23 15:24:00,68.0,50.2,30.15,SE,146,9.2,9.2,53,0.00,CLR,OVC,0.00,WeatherDisplay:10.37,2013-01-23 04:24:00,
2013-01-23 15:29:00,68.0,51.7,30.15,SE,124,6.9,6.9,56,0.00,CLR,OVC,0.00,WeatherDisplay:10.37,2013-01-23 04:29:00,
2013-01-23 15:34:00,67.9,51.1,30.15,ESE,110,8.1,8.1,55,0.00,CLR,OVC,0.00,WeatherDisplay:10.37,2013-01-23 04:34:00,
2013-01-23 15:39:00,68.3,51.0,30.15,ESE,111,8.1,8.1,54,0.00,CLR,OVC,0.00,WeatherDisplay:10.37,2013-01-23 04:39:00,
2013-01-23 15:44:00,68.3,51.0,30.15,SE,131,9.2,9.2,54,0.00,CLR,OVC,0.00,WeatherDisplay:10.37,2013-01-23 04:44:00,
2013-01-23 15:49:00,67.9,51.6,30.15,ESE,113,11.5,11.5,56,0.00,CLR,OVC,0.00,WeatherDisplay:10.37,2013-01-23 04:49:00,
2013-01-23 15:54:00,67.9,52.6,30.15,ESE,115,8.1,8.1,58,0.00,CLR,OVC,0.00,WeatherDisplay:10.37,2013-01-23 04:54:00,
2013-01-23 15:59:00,67.7,51.9,30.15,SE,136,8.1,8.1,57,0.00,CLR,OVC,0.00,WeatherDisplay:10.37,2013-01-23 04:59:00,
2013-01-23 16:01:00,67.6,51.8,30.15,SE,136,8.1,8.1,57,0.00,CLR,OVC,0.00,WeatherDisplay:10.37,2013-01-23 05:01:00,
2013-01-23 16:03:00,67.6,51.8,30.15,ESE,119,8.1,8.1,57,0.00,CLR,OVC,0.00,WeatherDisplay:10.37,2013-01-23 05:03:00,
2013-01-23 16:04:00,67.5,52.2,30.15,ESE,109,9.2,9.2,58,0.00,CLR,OVC,0.00,WeatherDisplay:10.37,2013-01-23 05:04:00,
2013-01-23 16:09:00,67.3,52.5,30.15,SE,128,10.4,10.4,59,0.00,CLR,OVC,0.00,WeatherDisplay:10.37,2013-01-23 05:09:00,
2013-01-23 16:14:00,67.1,51.4,30.15,ESE,121,9.2,9.2,57,0.00,CLR,OVC,0.00,WeatherDisplay:10.37,2013-01-23 05:14:00,
2013-01-23 16:19:00,67.0,50.8,30.15,SE,125,10.4,10.4,56,0.00,CLR,OVC,0.00,WeatherDisplay:10.37,2013-01-23 05:19:00,
2013-01-23 16:24:00,66.8,50.6,30.15,SE,130,9.2,9.2,56,0.00,CLR,OVC,0.00,WeatherDisplay:10.37,2013-01-23 05:24:00,
2013-01-23 16:29:00,67.0,49.8,30.15,ESE,115,6.9,6.9,54,0.00,CLR,OVC,0.00,WeatherDisplay:10.37,2013-01-23 05:29:00,
2013-01-23 16:34:00,67.2,50.5,30.14,ESE,121,9.2,9.2,55,0.00,CLR,OVC,0.00,WeatherDisplay:10.37,2013-01-23 05:34:00,
2013-01-23 16:39:00,67.1,50.4,30.14,ESE,115,6.9,6.9,55,0.00,CLR,OVC,0.00,WeatherDisplay:10.37,2013-01-23 05:39:00,
2013-01-23 16:44:00,66.9,49.7,30.14,SE,124,9.2,9.2,54,0.00,CLR,OVC,0.00,WeatherDisplay:10.37,2013-01-23 05:44:00,
2013-01-23 16:49:00,66.8,49.6,30.14,ESE,118,9.2,9.2,54,0.00,CLR,OVC,0.00,WeatherDisplay:10.37,2013-01-23 05:49:00,
2013-01-23 16:54:00,66.5,49.8,30.14,SSE,147,10.0,10.0,55,0.00,CLR,OVC,0.00,WeatherDisplay:10.37,2013-01-23 05:54:00,
2013-01-23 16:59:00,66.5,50.3,30.14,ESE,106,8.1,8.1,56,0.00,CLR,OVC,0.00,WeatherDisplay:10.37,2013-01-23 05:59:00,
2013-01-23 17:04:00,66.4,50.2,30.13,ESE,106,9.2,9.2,56,0.00,CLR,OVC,0.00,WeatherDisplay:10.37,2013-01-23 06:04:00,
2013-01-23 17:09:00,66.6,51.4,30.13,SE,136,11.5,11.5,58,0.00,CLR,OVC,0.00,WeatherDisplay:10.37,2013-01-23 06:09:00,
2013-01-23 17:14:00,66.6,51.4,30.13,ESE,122,9.2,9.2,58,0.00,CLR,OVC,0.00,WeatherDisplay:10.37,2013-01-23 06:14:00,
2013-01-23 17:19:00,66.3,51.1,30.13,SE,125,9.2,9.2,58,0.00,CLR,OVC,0.00,WeatherDisplay:10.37,2013-01-23 06:19:00,
2013-01-23 17:24:00,66.3,51.5,30.13,SE,140,9.0,9.0,59,0.00,CLR,OVC,0.00,WeatherDisplay:10.37,2013-01-23 06:24:00,
2013-01-23 17:29:00,66.5,51.7,30.13,ESE,118,8.1,8.1,59,0.00,CLR,OVC,0.00,WeatherDisplay:10.37,2013-01-23 06:29:00,
2013-01-23 17:34:00,66.5,51.3,30.12,SE,127,8.1,8.1,58,0.00,CLR,OVC,0.00,WeatherDisplay:10.37,2013-01-23 06:34:00,
2013-01-23 17:39:00,66.4,50.7,30.12,SE,137,10.0,10.0,57,0.00,CLR,OVC,0.00,WeatherDisplay:10.37,2013-01-23 06:39:00,
2013-01-23 17:44:00,65.9,51.2,30.12,SE,126,8.1,8.1,59,0.00,CLR,OVC,0.00,WeatherDisplay:10.37,2013-01-23 06:44:00,
2013-01-23 17:49:00,66.0,51.3,30.12,ESE,121,9.2,9.2,59,0.00,CLR,OVC,0.00,WeatherDisplay:10.37,2013-01-23 06:49:00,
2013-01-23 17:54:00,66.0,51.3,30.12,SE,129,9.2,9.2,59,0.00,CLR,OVC,0.00,WeatherDisplay:10.37,2013-01-23 06:54:00,
2013-01-23 17:59:00,66.1,52.3,30.12,SE,126,8.1,8.1,61,0.00,CLR,OVC,0.00,WeatherDisplay:10.37,2013-01-23 06:59:00,
2013-01-23 18:04:00,66.1,52.3,30.12,ESE,122,8.1,8.1,61,0.00,CLR,OVC,0.00,WeatherDisplay:10.37,2013-01-23 07:04:00,
2013-01-23 18:09:00,66.0,52.2,30.12,SE,124,9.2,9.2,61,0.00,CLR,OVC,0.00,WeatherDisplay:10.37,2013-01-23 07:09:00,
2013-01-23 18:14:00,65.9,51.2,30.12,SE,131,9.2,9.2,59,0.00,CLR,OVC,0.00,WeatherDisplay:10.37,2013-01-23 07:14:00,
2013-01-23 18:19:00,65.6,51.3,30.11,ESE,119,5.8,5.8,60,0.00,CLR,OVC,0.00,WeatherDisplay:10.37,2013-01-23 07:19:00,
2013-01-23 18:24:00,65.4,52.0,30.11,ESE,122,6.9,6.9,62,0.00,CLR,OVC,0.00,WeatherDisplay:10.37,2013-01-23 07:24:00,
2013-01-23 18:29:00,65.5,52.6,30.12,SE,130,7.0,7.0,63,0.00,CLR,OVC,0.00,WeatherDisplay:10.37,2013-01-23 07:29:00,
2013-01-23 18:34:00,65.5,53.4,30.11,SE,132,6.9,6.9,65,0.00,CLR,OVC,0.00,WeatherDisplay:10.37,2013-01-23 07:34:00,
2013-01-23 18:39:00,65.6,53.9,30.12,SE,140,9.0,9.0,66,0.00,CLR,OVC,0.00,WeatherDisplay:10.37,2013-01-23 07:39:00,
2013-01-23 18:44:00,65.3,54.5,30.12,SE,128,9.0,9.0,68,0.00,CLR,OVC,0.00,WeatherDisplay:10.37,2013-01-23 07:44:00,
2013-01-23 18:49:00,64.9,54.5,30.11,ESE,116,9.2,9.2,69,0.00,CLR,OVC,0.00,WeatherDisplay:10.37,2013-01-23 07:49:00,
2013-01-23 18:54:00,64.7,55.1,30.12,ESE,111,8.1,8.1,71,0.00,CLR,OVC,0.00,WeatherDisplay:10.37,2013-01-23 07:54:00,
2013-01-23 18:59:00,64.7,55.5,30.12,SE,128,8.1,8.1,72,0.00,CLR,OVC,0.00,WeatherDisplay:10.37,2013-01-23 07:59:00,
2013-01-23 19:04:00,64.6,55.4,30.12,SE,141,10.0,10.0,72,0.00,CLR,OVC,0.00,WeatherDisplay:10.37,2013-01-23 08:04:00,
2013-01-23 19:09:00,64.5,55.7,30.12,ESE,123,9.0,9.0,73,0.00,CLR,OVC,0.00,WeatherDisplay:10.37,2013-01-23 08:09:00,
2013-01-23 19:14:00,64.3,55.5,30.12,SE,126,9.2,9.2,73,0.00,CLR,OVC,0.00,WeatherDisplay:10.37,2013-01-23 08:14:00,
2013-01-23 19:19:00,64.2,55.7,30.12,ESE,121,8.1,8.1,74,0.00,CLR,OVC,0.00,WeatherDisplay:10.37,2013-01-23 08:19:00,
2013-01-23 19:24:00,64.4,55.9,30.12,SE,125,6.9,6.9,74,0.00,CLR,OVC,0.00,WeatherDisplay:10.37,2013-01-23 08:24:00,
2013-01-23 19:29:00,64.6,56.1,30.12,SE,130,6.9,6.9,74,0.00,CLR,OVC,0.00,WeatherDisplay:10.37,2013-01-23 08:29:00,
2013-01-23 19:34:00,64.8,56.3,30.12,SE,124,6.9,6.9,74,0.00,CLR,OVC,0.00,WeatherDisplay:10.37,2013-01-23 08:34:00,
2013-01-23 19:39:00,64.9,56.4,30.12,ESE,121,6.9,6.9,74,0.00,CLR,OVC,0.00,WeatherDisplay:10.37,2013-01-23 08:39:00,
2013-01-23 19:44:00,64.8,56.3,30.12,SE,125,9.2,9.2,74,0.00,CLR,OVC,0.00,WeatherDisplay:10.37,2013-01-23 08:44:00,
2013-01-23 19:49:00,64.7,56.6,30.12,SE,124,6.9,6.9,75,0.00,CLR,OVC,0.00,WeatherDisplay:10.37,2013-01-23 08:49:00,
2013-01-23 19:54:00,64.6,56.5,30.12,SE,128,6.9,6.9,75,0.00,CLR,OVC,0.00,WeatherDisplay:10.37,2013-01-23 08:54:00,
2013-01-23 19:59:00,64.6,56.5,30.12,ESE,121,6.0,6.0,75,0.00,CLR,OVC,0.00,WeatherDisplay:10.37,2013-01-23 08:59:00,
2013-01-23 20:04:00,64.5,56.4,30.12,ESE,123,6.0,6.0,75,0.00,CLR,OVC,0.00,WeatherDisplay:10.37,2013-01-23 09:04:00,
2013-01-23 20:09:00,64.4,56.7,30.12,SE,124,6.9,6.9,76,0.00,CLR,OVC,0.00,WeatherDisplay:10.37,2013-01-23 09:09:00,
2013-01-23 20:14:00,64.3,56.6,30.12,SE,129,4.6,4.6,76,0.00,CLR,OVC,0.00,WeatherDisplay:10.37,2013-01-23 09:14:00,
2013-01-23 20:19:00,64.2,56.5,30.12,SE,131,5.0,5.0,76,0.00,CLR,OVC,0.00,WeatherDisplay:10.37,2013-01-23 09:19:00,
2013-01-23 20:24:00,64.2,56.8,30.12,SE,132,4.6,4.6,77,0.00,CLR,OVC,0.00,WeatherDisplay:10.37,2013-01-23 09:24:00,
2013-01-23 20:29:00,64.3,56.9,30.12,SE,132,4.6,4.6,77,0.00,CLR,OVC,0.00,WeatherDisplay:10.37,2013-01-23 09:29:00,
2013-01-23 20:34:00,64.4,57.4,30.12,SE,128,6.9,6.9,78,0.00,CLR,OVC,0.00,WeatherDisplay:10.37,2013-01-23 09:34:00,
2013-01-23 20:39:00,64.5,58.2,30.12,SE,130,4.6,4.6,80,0.00,CLR,OVC,0.00,WeatherDisplay:10.37,2013-01-23 09:39:00,
2013-01-23 20:44:00,64.8,58.5,30.12,ESE,119,8.1,8.1,80,0.00,CLR,OVC,0.00,WeatherDisplay:10.37,2013-01-23 09:44:00,
2013-01-23 20:49:00,65.0,58.7,30.12,SE,130,10.4,10.4,80,0.00,CLR,OVC,0.00,WeatherDisplay:10.37,2013-01-23 09:49:00,
2013-01-23 20:54:00,65.2,57.8,30.12,East,84,9.2,9.2,77,0.00,CLR,OVC,0.00,WeatherDisplay:10.37,2013-01-23 09:54:00,
2013-01-23 20:59:00,65.3,57.6,30.12,East,96,8.0,18.0,76,0.00,CLR,OVC,0.00,WeatherDisplay:10.37,2013-01-23 09:59:00,
2013-01-23 21:04:00,65.5,57.7,30.12,East,84,10.4,10.4,76,0.00,CLR,OVC,0.00,WeatherDisplay:10.37,2013-01-23 10:04:00,
2013-01-23 21:09:00,65.6,57.5,30.11,East,98,18.4,18.4,75,0.00,CLR,OVC,0.00,WeatherDisplay:10.37,2013-01-23 10:09:00,
2013-01-23 21:14:00,65.6,57.5,30.11,East,83,16.1,16.1,75,0.00,CLR,OVC,0.00,WeatherDisplay:10.37,2013-01-23 10:14:00,
2013-01-23 21:19:00,65.5,57.4,30.11,East,83,12.7,12.7,75,0.00,CLR,OVC,0.00,WeatherDisplay:10.37,2013-01-23 10:19:00,
2013-01-23 21:24:00,65.5,57.4,30.12,East,90,10.4,10.4,75,0.00,CLR,OVC,0.00,WeatherDisplay:10.37,2013-01-23 10:24:00,
2013-01-23 21:29:00,65.5,57.4,30.11,East,88,7.0,18.0,75,0.00,CLR,OVC,0.00,WeatherDisplay:10.37,2013-01-23 10:29:00,
2013-01-23 21:34:00,65.4,57.3,30.11,East,80,12.7,12.7,75,0.00,CLR,OVC,0.00,WeatherDisplay:10.37,2013-01-23 10:34:00,
2013-01-23 21:40:00,65.3,57.2,30.11,East,87,8.1,8.1,75,0.00,CLR,OVC,0.00,WeatherDisplay:10.37,2013-01-23 10:40:00,
2013-01-23 21:45:00,65.2,57.1,30.11,East,87,9.2,9.2,75,0.00,CLR,OVC,0.00,WeatherDisplay:10.37,2013-01-23 10:45:00,
2013-01-23 21:50:00,65.1,57.0,30.11,East,88,6.9,6.9,75,0.00,CLR,OVC,0.00,WeatherDisplay:10.37,2013-01-23 10:50:00,
2013-01-23 21:55:00,65.0,56.9,30.11,East,82,9.2,9.2,75,0.00,CLR,OVC,0.00,WeatherDisplay:10.37,2013-01-23 10:55:00,
2013-01-23 22:00:00,64.8,56.3,30.11,East,94,8.1,8.1,74,0.00,CLR,OVC,0.00,WeatherDisplay:10.37,2013-01-23 11:00:00,
2013-01-23 22:05:00,64.7,56.2,30.12,ENE,78,13.8,13.8,74,0.00,CLR,OVC,0.00,WeatherDisplay:10.37,2013-01-23 11:05:00,
2013-01-23 22:10:00,64.6,56.1,30.11,East,84,8.1,8.1,74,0.00,CLR,OVC,0.00,WeatherDisplay:10.37,2013-01-23 11:10:00,
2013-01-23 22:15:00,64.5,55.7,30.11,East,96,10.4,10.4,73,0.00,CLR,OVC,0.00,WeatherDisplay:10.37,2013-01-23 11:15:00,
2013-01-23 22:20:00,64.5,55.7,30.11,East,79,8.1,8.1,73,0.00,CLR,OVC,0.00,WeatherDisplay:10.37,2013-01-23 11:20:00,
2013-01-23 22:25:00,64.5,55.7,30.11,East,89,10.4,10.4,73,0.00,CLR,OVC,0.00,WeatherDisplay:10.37,2013-01-23 11:25:00,
2013-01-23 22:30:00,64.5,55.7,30.11,East,83,11.5,11.5,73,0.00,CLR,OVC,0.00,WeatherDisplay:10.37,2013-01-23 11:30:00,
2013-01-23 22:35:00,64.5,55.7,30.11,East,88,10.4,10.4,73,0.00,CLR,OVC,0.00,WeatherDisplay:10.37,2013-01-23 11:35:00,
2013-01-23 22:40:00,64.4,55.6,30.11,ENE,76,9.0,9.0,73,0.00,CLR,OVC,0.00,WeatherDisplay:10.37,2013-01-23 11:40:00,
2013-01-23 22:45:00,64.4,55.6,30.11,East,95,11.5,11.5,73,0.00,CLR,OVC,0.00,WeatherDisplay:10.37,2013-01-23 11:45:00,
2013-01-23 22:50:00,64.4,55.9,30.10,East,82,9.2,9.2,74,0.00,CLR,OVC,0.00,WeatherDisplay:10.37,2013-01-23 11:50:00,
2013-01-23 22:55:00,64.4,56.3,30.10,East,90,11.5,11.5,75,0.00,CLR,OVC,0.00,WeatherDisplay:10.37,2013-01-23 11:55:00,
2013-01-23 23:00:00,64.4,56.3,30.10,East,89,9.2,9.2,75,0.00,CLR,OVC,0.00,WeatherDisplay:10.37,2013-01-23 12:00:00,
2013-01-23 23:05:00,64.3,56.2,30.10,ESE,102,9.2,9.2,75,0.00,CLR,OVC,0.00,WeatherDisplay:10.37,2013-01-23 12:05:00,
2013-01-23 23:10:00,64.3,56.2,30.10,East,95,10.4,10.4,75,0.00,CLR,OVC,0.00,WeatherDisplay:10.37,2013-01-23 12:10:00,
2013-01-23 23:15:00,64.2,56.1,30.11,East,88,8.1,8.1,75,0.00,CLR,OVC,0.00,WeatherDisplay:10.37,2013-01-23 12:15:00,
2013-01-23 23:20:00,64.1,56.0,30.11,East,87,8.1,8.1,75,0.00,CLR,OVC,0.00,WeatherDisplay:10.37,2013-01-23 12:20:00,
2013-01-23 23:25:00,63.9,56.2,30.10,East,79,7.0,7.0,76,0.00,CLR,OVC,0.00,WeatherDisplay:10.37,2013-01-23 12:25:00,
2013-01-23 23:30:00,63.8,56.1,30.10,East,98,5.8,5.8,76,0.00,CLR,OVC,0.00,WeatherDisplay:10.37,2013-01-23 12:30:00,
2013-01-23 23:35:00,63.6,55.9,30.10,ESE,103,11.0,11.0,76,0.00,CLR,OVC,0.00,WeatherDisplay:10.37,2013-01-23 12:35:00,
2013-01-23 23:40:00,63.5,55.8,30.09,East,90,8.0,8.0,76,0.00,CLR,OVC,0.00,WeatherDisplay:10.37,2013-01-23 12:40:00,
2013-01-23 23:45:00,63.5,55.8,30.09,East,96,7.0,7.0,76,0.00,CLR,OVC,0.00,WeatherDisplay:10.37,2013-01-23 12:45:00,
2013-01-23 23:50:00,63.4,55.7,30.09,East,91,8.1,8.1,76,0.00,CLR,OVC,0.00,WeatherDisplay:10.37,2013-01-23 12:50:00,
2013-01-23 23:56:00,63.3,55.6,30.09,East,90,5.8,5.8,76,0.00,CLR,OVC,0.00,WeatherDisplay:10.37,2013-01-23 12:56:00,